Time;durP1;ratioP1;P1;durP2;ratioP2;P2;SDS_P1;SDS_P2;PMS_P1;PMS_P2;Temp;Humidity;BMP_temperature;BMP_pressure;BME280_temperature;BME280_humidity;BME280_pressure;Samples;Min_cycle;Max_cycle;Signal;HPM_P1;HPM_P2
2023/08/23 00:04:11;;;;;;;;;0.00;0.00;;;;;;;;2;243074475;243074475;-78
2023/08/23 00:12:26;;;;;;;;;0.00;0.00;;;;;;;;2;261076846;261076846;-77
2023/08/23 00:21:09;;;;;;;;;0.00;0.00;;;;;;;;2;243077173;243077173;-77
2023/08/23 00:29:24;;;;;;;;;0.00;0.00;;;;;;;;2;261081601;261081601;-77
2023/08/23 00:38:07;;;;;;;;;0.00;0.00;;;;;;;;2;243076461;243076461;-77
2023/08/23 00:46:23;;;;;;;;;0.50;0.50;;;;;;;;2;261081141;261081141;-78
2023/08/23 00:55:06;;;;;;;;;0.00;0.00;;;;;;;;2;243074849;243074849;-77
2023/08/23 01:03:21;;;;;;;;;0.50;0.50;;;;;;;;2;261081292;261081292;-77
2023/08/23 01:12:03;;;;;;;;;0.00;0.00;;;;;;;;2;243078407;243078407;-77
2023/08/23 01:20:19;;;;;;;;;0.00;0.00;;;;;;;;2;261079777;261079777;-76
2023/08/23 01:29:02;;;;;;;;;0.50;0.50;;;;;;;;2;243075782;243075782;-76
2023/08/23 01:37:19;;;;;;;;;0.00;0.00;;;;;;;;2;261081799;261081799;-77
2023/08/23 01:46:02;;;;;;;;;0.00;0.00;;;;;;;;2;243074064;243074064;-77
2023/08/23 01:54:17;;;;;;;;;1.50;1.50;;;;;;;;2;261083595;261083595;-77
2023/08/23 02:03:01;;;;;;;;;1.00;1.00;;;;;;;;2;243069756;243069756;-77
2023/08/23 02:11:16;;;;;;;;;0.00;0.00;;;;;;;;2;261072780;261072780;-77
2023/08/23 02:19:59;;;;;;;;;0.50;0.50;;;;;;;;2;243067289;243067289;-77
2023/08/23 02:28:14;;;;;;;;;0.00;0.00;;;;;;;;2;261061473;261061473;-77
2023/08/23 02:36:56;;;;;;;;;0.50;0.50;;;;;;;;2;243058022;243058022;-78
2023/08/23 02:45:12;;;;;;;;;0.00;0.00;;;;;;;;2;261071326;261071326;-77
2023/08/23 02:53:54;;;;;;;;;0.00;0.00;;;;;;;;2;243077628;243077628;-78
2023/08/23 03:02:09;;;;;;;;;0.00;0.00;;;;;;;;2;261079789;261079789;-78
2023/08/23 03:11:00;;;;;;;;;0.00;0.00;;;;;;;;2;243073612;243073612;-78
2023/08/23 03:19:15;;;;;;;;;0.00;0.00;;;;;;;;2;261082239;261082239;-76
2023/08/23 03:27:57;;;;;;;;;0.00;0.00;;;;;;;;2;243073669;243073669;-77
2023/08/23 03:36:13;;;;;;;;;0.00;0.00;;;;;;;;2;261080324;261080324;-77
2023/08/23 03:44:55;;;;;;;;;0.00;0.00;;;;;;;;2;243075918;243075918;-78
2023/08/23 03:53:11;;;;;;;;;0.00;0.00;;;;;;;;2;261081639;261081639;-76
2023/08/23 04:01:53;;;;;;;;;0.00;0.00;;;;;;;;2;243076994;243076994;-77
2023/08/23 04:10:09;;;;;;;;;0.00;0.00;;;;;;;;2;261081780;261081780;-77
2023/08/23 04:18:51;;;;;;;;;1.00;1.00;;;;;;;;2;243073206;243073206;-78
2023/08/23 04:27:06;;;;;;;;;0.00;0.00;;;;;;;;2;261076743;261076743;-79
2023/08/23 04:35:49;;;;;;;;;0.50;0.50;;;;;;;;2;243073050;243073050;-79
2023/08/23 04:44:05;;;;;;;;;0.00;0.00;;;;;;;;2;261077438;261077438;-79
2023/08/23 04:52:47;;;;;;;;;1.00;1.00;;;;;;;;2;243073667;243073667;-78
2023/08/23 05:01:04;;;;;;;;;0.50;0.50;;;;;;;;2;261078046;261078046;-78
2023/08/23 05:09:46;;;;;;;;;0.50;0.50;;;;;;;;2;243076628;243076628;-78
2023/08/23 05:18:01;;;;;;;;;9.00;1.00;;;;;;;;2;261079017;261079017;-78
2023/08/23 05:26:44;;;;;;;;;0.00;0.00;;;;;;;;2;243073961;243073961;-78
2023/08/23 05:34:59;;;;;;;;;0.00;0.00;;;;;;;;2;261080551;261080551;-79
2023/08/23 05:43:42;;;;;;;;;0.00;0.00;;;;;;;;2;243074014;243074014;-79
2023/08/23 05:51:57;;;;;;;;;5.50;1.50;;;;;;;;2;261082199;261082199;-76
2023/08/23 06:00:39;;;;;;;;;2.00;2.00;;;;;;;;2;243070044;243070044;-75
2023/08/23 06:08:55;;;;;;;;;0.00;0.00;;;;;;;;2;261078490;261078490;-75
2023/08/23 06:17:37;;;;;;;;;0.50;0.50;;;;;;;;2;243073751;243073751;-75
2023/08/23 06:25:59;;;;;;;;;5.00;5.00;;;;;;;;2;261080005;261080005;-75
2023/08/23 06:34:41;;;;;;;;;0.00;0.00;;;;;;;;2;243070560;243070560;-76
2023/08/23 06:42:56;;;;;;;;;2.50;0.00;;;;;;;;2;261077956;261077956;-75
2023/08/23 06:54:58;;;;;;;;;0.50;0.50;;;;;;;;2;243073529;243073529;-76
2023/08/23 07:03:13;;;;;;;;;0.00;0.00;;;;;;;;2;261080939;261080939;-75
2023/08/23 07:11:56;;;;;;;;;3.00;0.50;;;;;;;;2;243078260;243078260;-76
2023/08/23 07:20:13;;;;;;;;;3.50;3.50;;;;;;;;2;261074731;261074731;-76
2023/08/23 07:28:55;;;;;;;;;0.00;0.00;;;;;;;;2;243073396;243073396;-77
2023/08/23 07:37:11;;;;;;;;;0.50;0.50;;;;;;;;2;261078875;261078875;-76
2023/08/23 07:45:54;;;;;;;;;1.00;1.00;;;;;;;;2;243073009;243073009;-77
2023/08/23 07:54:10;;;;;;;;;0.50;0.50;;;;;;;;2;261079136;261079136;-77
2023/08/23 08:02:53;;;;;;;;;1.00;1.00;;;;;;;;2;243071863;243071863;-75
2023/08/23 08:11:10;;;;;;;;;1.50;1.50;;;;;;;;2;261078700;261078700;-77
2023/08/23 08:19:52;;;;;;;;;0.50;0.50;;;;;;;;2;243073095;243073095;-76
2023/08/23 08:28:08;;;;;;;;;1.00;1.00;;;;;;;;2;261079484;261079484;-77
2023/08/23 08:36:50;;;;;;;;;0.50;0.50;;;;;;;;2;243076600;243076600;-77
2023/08/23 08:45:06;;;;;;;;;3.00;3.00;;;;;;;;2;261080479;261080479;-78
2023/08/23 08:53:50;;;;;;;;;0.00;0.00;;;;;;;;2;243075159;243075159;-78
2023/08/23 09:02:08;;;;;;;;;0.00;0.00;;;;;;;;2;260941438;260941438;-77
2023/08/23 09:10:51;;;;;;;;;1.50;1.50;;;;;;;;2;243073612;243073612;-77
2023/08/23 09:19:12;;;;;;;;;2.00;2.00;;;;;;;;2;261077173;261077173;-77
2023/08/23 09:27:55;;;;;;;;;1.50;1.50;;;;;;;;2;243074940;243074940;-79
2023/08/23 09:36:10;;;;;;;;;2.50;2.50;;;;;;;;2;261077835;261077835;-78
2023/08/23 09:44:54;;;;;;;;;1.50;1.50;;;;;;;;2;243073194;243073194;-73
2023/08/23 09:53:12;;;;;;;;;2.50;2.50;;;;;;;;2;261079129;261079129;-75
2023/08/23 10:01:55;;;;;;;;;0.00;0.00;;;;;;;;2;243073471;243073471;-74
2023/08/23 10:10:10;;;;;;;;;0.00;0.00;;;;;;;;2;261079676;261079676;-75
2023/08/23 10:18:53;;;;;;;;;5.50;0.00;;;;;;;;2;243075277;243075277;-73
2023/08/23 10:27:08;;;;;;;;;2.50;2.50;;;;;;;;2;261078988;261078988;-74
2023/08/23 10:35:51;;;;;;;;;0.50;0.50;;;;;;;;2;243074405;243074405;-74
2023/08/23 10:44:15;;;;;;;;;0.50;0.50;;;;;;;;2;261039692;261039692;-74
2023/08/23 10:53:02;;;;;;;;;1.00;1.00;;;;;;;;2;243074344;243074344;-74
2023/08/23 11:01:18;;;;;;;;;2.00;2.00;;;;;;;;2;261078948;261078948;-74
2023/08/23 11:10:01;;;;;;;;;1.00;1.00;;;;;;;;2;243073705;243073705;-74
2023/08/23 11:18:16;;;;;;;;;2.50;2.50;;;;;;;;2;261078464;261078464;-75
2023/08/23 11:26:58;;;;;;;;;3.00;3.00;;;;;;;;2;243063400;243063400;-74
2023/08/23 11:35:16;;;;;;;;;3.00;3.00;;;;;;;;2;261081337;261081337;-74
2023/08/23 11:44:01;;;;;;;;;1.50;1.50;;;;;;;;2;242929694;242929694;-74
2023/08/23 11:52:16;;;;;;;;;3.00;3.00;;;;;;;;2;261079897;261079897;-74
2023/08/23 12:00:59;;;;;;;;;5.50;5.50;;;;;;;;2;243073486;243073486;-74
2023/08/23 12:09:15;;;;;;;;;3.00;3.00;;;;;;;;2;260854949;260854949;-81
2023/08/23 12:17:57;;;;;;;;;3.50;3.50;;;;;;;;2;243076676;243076676;-80
2023/08/23 12:26:13;;;;;;;;;4.50;4.50;;;;;;;;2;261089071;261089071;-80
2023/08/23 12:34:55;;;;;;;;;4.00;4.00;;;;;;;;2;243073326;243073326;-80
2023/08/23 12:43:10;;;;;;;;;2.00;2.00;;;;;;;;2;261079934;261079934;-81
2023/08/23 12:51:53;;;;;;;;;1.50;1.50;;;;;;;;2;243075059;243075059;-81
2023/08/23 13:00:07;;;;;;;;;4.50;4.50;;;;;;;;2;260925319;260925319;-81
2023/08/23 13:05:32;;;;;;;;;9.00;6.00;;;;;;;;2;238606170;238606170;-79
2023/08/23 13:15:00;;;;;;;;;3.00;3.00;;;;;;;;3;96534305;231183618;-81
2023/08/23 13:23:58;;;;;;;;;3.50;3.50;;;;;;;;148903;30;237128421;-80
2023/08/23 13:31:16;;;;;;;;;1.50;1.50;;;;;;;;2;249031527;249031527;-80
2023/08/23 13:37:51;;;;;;;;;5.50;5.50;;;;;;;;2;237476275;237476275;-79
2023/08/23 13:42:01;;;;;;;;;3.50;3.50;;;;;;;;2;238401943;238401943;-81
2023/08/23 13:50:09;;;;;;;;;4.00;4.00;;;;;;;;103200;30;198640896;-81
2023/08/23 13:59:00;;;;;;;;;4.00;4.00;;;;;;;;2;274741803;274741803;-81
2023/08/23 14:06:52;;;;;;;;;0.50;0.50;;;;;;;;2;230726934;230726934;-80
2023/08/23 14:15:49;;;;;;;;;9.50;1.50;;;;;;;;2;276268123;276268123;-79
2023/08/23 14:23:42;;;;;;;;;3.00;3.00;;;;;;;;2;232639723;232639723;-80
2023/08/23 14:32:38;;;;;;;;;2.00;2.00;;;;;;;;2;275059764;275059764;-79
2023/08/23 14:40:30;;;;;;;;;3.00;3.00;;;;;;;;2;231819291;231819291;-79
2023/08/23 14:49:23;;;;;;;;;4.50;2.00;;;;;;;;2;275553159;275553159;-79
2023/08/23 14:57:16;;;;;;;;;5.00;5.00;;;;;;;;2;232554506;232554506;-79
2023/08/23 15:06:07;;;;;;;;;2.00;2.00;;;;;;;;2;274061672;274061672;-77
2023/08/23 15:09:40;;;;;;;;;1.00;1.00;;;;;;;;2;192543285;192543285;-78
2023/08/23 15:18:38;;;;;;;;;2.00;2.00;;;;;;;;31139;30;235579468;-78
2023/08/23 15:26:44;;;;;;;;;2.00;2.00;;;;;;;;2;257204341;257204341;-79
2023/08/23 15:35:17;;;;;;;;;2.00;2.00;;;;;;;;2;238803948;238803948;-78
2023/08/23 15:43:21;;;;;;;;;2.00;2.00;;;;;;;;2;256493631;256493631;-79
2023/08/23 15:51:54;;;;;;;;;2.50;2.50;;;;;;;;2;237996586;237996586;-79
2023/08/23 16:00:00;;;;;;;;;1.50;1.50;;;;;;;;2;255985980;255985980;-79
2023/08/23 16:08:32;;;;;;;;;5.00;5.00;;;;;;;;2;237322736;237322736;-78
2023/08/23 16:16:39;;;;;;;;;4.00;4.00;;;;;;;;2;256151611;256151611;-78
2023/08/23 16:25:10;;;;;;;;;3.50;3.50;;;;;;;;2;238683725;238683725;-78
2023/08/23 16:33:18;;;;;;;;;4.50;4.50;;;;;;;;2;256482336;256482336;-77
2023/08/23 16:41:49;;;;;;;;;2.50;2.50;;;;;;;;2;237795194;237795194;-78
2023/08/23 16:46:27;;;;;;;;;3.00;3.00;;;;;;;;2;255348546;255348546;-77
2023/08/23 16:52:19;;;;;;;;;3.00;3.00;;;;;;;;204866;30;230412154;-78
2023/08/23 17:00:12;;;;;;;;;3.00;3.00;;;;;;;;610269;30;140134033;-77
2023/08/23 17:07:44;;;;;;;;;1.50;1.50;;;;;;;;2;218633320;218633320;-76
2023/08/23 17:16:31;;;;;;;;;3.50;3.50;;;;;;;;2;270808739;270808739;-78
2023/08/23 17:24:19;;;;;;;;;0.50;0.50;;;;;;;;2;229388533;229388533;-76
2023/08/23 17:33:09;;;;;;;;;0.50;0.50;;;;;;;;2;274378237;274378237;-76
2023/08/23 17:40:58;;;;;;;;;6.00;6.00;;;;;;;;2;228961193;228961193;-77
2023/08/23 17:49:47;;;;;;;;;5.50;5.50;;;;;;;;2;273133142;273133142;-77
2023/08/23 17:57:33;;;;;;;;;4.00;4.00;;;;;;;;2;229444434;229444434;-77
2023/08/23 18:06:21;;;;;;;;;3.50;3.50;;;;;;;;2;273036205;273036205;-77
2023/08/23 18:14:09;;;;;;;;;7.00;7.00;;;;;;;;2;229886858;229886858;-75
2023/08/23 18:22:46;;;;;;;;;11.00;2.50;;;;;;;;2;268590521;268590521;-76
2023/08/23 18:30:24;;;;;;;;;2.00;2.00;;;;;;;;2;224516197;224516197;-77
2023/08/23 18:38:59;;;;;;;;;7.50;7.50;;;;;;;;2;267059570;267059570;-78
2023/08/23 18:46:33;;;;;;;;;3.00;3.00;;;;;;;;2;224820302;224820302;-77
2023/08/23 18:55:04;;;;;;;;;5.00;5.00;;;;;;;;2;262863057;262863057;-77
2023/08/23 19:02:36;;;;;;;;;7.00;7.00;;;;;;;;2;222553101;222553101;-77
2023/08/23 19:11:10;;;;;;;;;10.50;10.50;;;;;;;;2;264556944;264556944;-77
2023/08/23 19:18:49;;;;;;;;;5.50;5.50;;;;;;;;2;225345196;225345196;-76
2023/08/23 19:27:29;;;;;;;;;2.00;2.00;;;;;;;;2;267581351;267581351;-77
2023/08/23 19:35:10;;;;;;;;;3.00;3.00;;;;;;;;2;224868985;224868985;-77
2023/08/23 19:43:53;;;;;;;;;2.00;2.00;;;;;;;;2;269063376;269063376;-77
2023/08/23 19:51:34;;;;;;;;;2.00;2.00;;;;;;;;2;227291730;227291730;-76
2023/08/23 20:00:19;;;;;;;;;2.00;2.00;;;;;;;;2;271293270;271293270;-78
2023/08/23 20:08:05;;;;;;;;;7.00;7.00;;;;;;;;2;228334836;228334836;-77
2023/08/23 20:16:52;;;;;;;;;3.50;3.50;;;;;;;;2;272052566;272052566;-80
2023/08/23 20:24:36;;;;;;;;;3.50;3.50;;;;;;;;2;227245988;227245988;-79
2023/08/23 20:33:21;;;;;;;;;3.00;3.00;;;;;;;;2;272242762;272242762;-79
2023/08/23 20:41:05;;;;;;;;;5.00;5.00;;;;;;;;2;227619036;227619036;-78
2023/08/23 20:49:48;;;;;;;;;3.50;3.50;;;;;;;;2;270364811;270364811;-78
2023/08/23 20:57:33;;;;;;;;;1.50;1.50;;;;;;;;2;228411446;228411446;-78
2023/08/23 21:06:17;;;;;;;;;4.50;4.50;;;;;;;;2;270701564;270701564;-77
2023/08/23 21:14:03;;;;;;;;;5.00;5.00;;;;;;;;2;227525787;227525787;-79
2023/08/23 21:22:44;;;;;;;;;2.00;2.00;;;;;;;;2;268438262;268438262;-78
2023/08/23 21:30:28;;;;;;;;;5.00;5.00;;;;;;;;2;225791835;225791835;-77
2023/08/23 21:39:13;;;;;;;;;2.50;2.50;;;;;;;;2;270584998;270584998;-78
2023/08/23 21:46:55;;;;;;;;;4.50;4.50;;;;;;;;2;226333626;226333626;-72
2023/08/23 21:55:32;;;;;;;;;3.50;3.50;;;;;;;;2;266173713;266173713;-72
2023/08/23 22:03:26;;;;;;;;;8.50;8.50;;;;;;;;2;225512635;225512635;-72
2023/08/23 22:12:15;;;;;;;;;6.00;6.00;;;;;;;;2;273537459;273537459;-72
2023/08/23 22:20:03;;;;;;;;;6.00;6.00;;;;;;;;2;230163074;230163074;-73
2023/08/23 22:28:50;;;;;;;;;7.00;7.00;;;;;;;;2;272634944;272634944;-74
2023/08/23 22:36:34;;;;;;;;;5.00;5.00;;;;;;;;2;226456563;226456563;-73
2023/08/23 22:42:57;;;;;;;;;8.00;8.00;;;;;;;;2;269927996;269927996;-74
2023/08/23 22:47:49;;;;;;;;;5.50;5.50;;;;;;;;2;222403584;222403584;-74
2023/08/23 22:55:04;;;;;;;;;4.00;4.00;;;;;;;;1153639;30;230338637;-72
2023/08/23 23:04:18;;;;;;;;;5.50;5.50;;;;;;;;504344;30;275210151;-73
2023/08/23 23:12:09;;;;;;;;;5.50;5.50;;;;;;;;2;231018527;231018527;-73
2023/08/23 23:21:05;;;;;;;;;5.50;5.50;;;;;;;;2;275932746;275932746;-73
2023/08/23 23:28:56;;;;;;;;;6.00;6.00;;;;;;;;2;229689423;229689423;-73
2023/08/23 23:37:49;;;;;;;;;9.50;9.50;;;;;;;;2;275736357;275736357;-74
2023/08/23 23:45:41;;;;;;;;;5.00;5.00;;;;;;;;2;231555713;231555713;-74
2023/08/23 23:54:37;;;;;;;;;5.50;5.50;;;;;;;;2;276333096;276333096;-74
